createdAt,value
2023-01-19T00:00:12.484Z,95537.00
2023-01-19T00:02:40.608Z,95533.47
2023-01-19T00:05:09.183Z,95542.50
2023-01-19T00:07:37.343Z,95557.59
2023-01-19T00:10:06.391Z,95555.06
2023-01-19T00:12:34.589Z,95548.84
2023-01-19T00:15:05.087Z,95544.34
2023-01-19T00:17:33.238Z,95550.72
2023-01-19T00:20:01.344Z,95557.91
2023-01-19T00:22:29.547Z,95553.50
2023-01-19T00:24:57.669Z,95553.50
2023-01-19T00:27:25.983Z,95558.88
2023-01-19T00:29:54.091Z,95564.38
2023-01-19T00:32:23.635Z,95568.78
2023-01-19T00:34:52.400Z,95561.72
2023-01-19T00:37:20.758Z,95567.22
2023-01-19T00:39:48.826Z,95563.53
2023-01-19T00:42:34.453Z,95560.03
2023-01-19T00:45:02.635Z,95565.41
2023-01-19T00:47:32.367Z,95554.78
2023-01-19T00:50:00.458Z,95549.41
2023-01-19T00:52:28.618Z,95552.09
2023-01-19T00:54:56.715Z,95552.25
2023-01-19T00:57:24.871Z,95559.44
2023-01-19T00:59:53.025Z,95560.28
2023-01-19T01:02:21.329Z,95568.34
2023-01-19T01:04:54.823Z,95573.84
2023-01-19T01:07:23.086Z,95568.50
2023-01-19T01:09:51.589Z,95572.84
2023-01-19T01:12:19.701Z,95572.03
2023-01-19T01:14:47.846Z,95568.50
2023-01-19T01:17:16.686Z,95567.63
2023-01-19T01:19:44.858Z,95572.28
2023-01-19T01:22:14.330Z,95579.47
2023-01-19T01:24:42.580Z,95579.47
2023-01-19T01:27:10.676Z,95575.97
2023-01-19T01:29:41.161Z,95572.44
2023-01-19T01:32:09.951Z,95581.34
2023-01-19T01:34:38.022Z,95570.63
2023-01-19T01:37:08.383Z,95571.44
2023-01-19T01:39:37.895Z,95567.94
2023-01-19T01:42:10.698Z,95550.97
2023-01-19T01:44:50.030Z,95552.81
2023-01-19T01:47:28.376Z,95556.50
2023-01-19T01:49:59.551Z,95572.59
2023-01-19T01:52:27.890Z,95566.38
2023-01-19T01:54:57.479Z,95576.25
2023-01-19T01:57:28.166Z,95577.09
2023-01-19T01:59:56.586Z,95575.28
2023-01-19T02:02:43.707Z,95562.84
2023-01-19T02:05:12.542Z,95561.16
2023-01-19T02:08:02.441Z,95557.63
2023-01-19T02:10:49.442Z,95571.88
2023-01-19T02:13:23.459Z,95566.53
2023-01-19T02:15:52.828Z,95579.06
2023-01-19T02:18:21.337Z,95569.31
2023-01-19T02:20:54.907Z,95563.13
2023-01-19T02:23:34.260Z,95561.28
2023-01-19T02:26:02.389Z,95547.03
2023-01-19T02:28:30.510Z,95541.66
2023-01-19T02:30:58.771Z,95544.34
2023-01-19T02:33:27.158Z,95553.38
2023-01-19T02:35:55.319Z,95554.22
2023-01-19T02:38:23.915Z,95548.00
2023-01-19T02:40:53.476Z,95555.19
2023-01-19T02:43:21.553Z,95542.94
2023-01-19T02:45:50.129Z,95544.06
2023-01-19T02:48:19.168Z,95553.81
2023-01-19T02:50:49.926Z,95561.88
2023-01-19T02:53:33.150Z,95568.06
2023-01-19T02:56:06.899Z,95561.00
2023-01-19T02:58:35.968Z,95567.22
2023-01-19T03:01:09.015Z,95570.03
2023-01-19T03:03:40.482Z,95572.84
2023-01-19T03:06:11.112Z,95563.84
2023-01-19T03:08:44.360Z,95575.28
2023-01-19T03:11:14.106Z,95587.69
2023-01-19T03:13:45.339Z,95585.84
2023-01-19T03:16:17.015Z,95597.69
2023-01-19T03:18:46.674Z,95602.19
2023-01-19T03:21:14.842Z,95613.06
2023-01-19T03:23:43.431Z,95617.59
2023-01-19T03:26:14.383Z,95618.59
2023-01-19T03:28:42.782Z,95627.50
2023-01-19T03:31:13.480Z,95617.72
2023-01-19T03:33:43.050Z,95616.88
2023-01-19T03:36:13.738Z,95623.09
2023-01-19T03:38:41.952Z,95627.59
2023-01-19T03:41:12.867Z,95616.06
2023-01-19T03:43:42.375Z,95606.28
2023-01-19T03:46:11.055Z,95604.31
2023-01-19T03:48:39.498Z,95603.34
2023-01-19T03:51:08.930Z,95604.88
2023-01-19T03:53:36.992Z,95605.75
2023-01-19T03:56:06.104Z,95603.91
2023-01-19T03:58:34.260Z,95606.59
2023-01-19T04:01:04.303Z,95600.53
2023-01-19T04:03:32.573Z,95600.66
2023-01-19T04:06:00.667Z,95610.53
2023-01-19T04:08:28.885Z,95604.31
2023-01-19T04:10:58.704Z,95613.38
2023-01-19T04:13:27.212Z,95614.34
2023-01-19T04:15:55.337Z,95621.53
2023-01-19T04:18:24.911Z,95624.22
2023-01-19T04:20:52.980Z,95632.25
2023-01-19T04:23:21.153Z,95634.06
2023-01-19T04:25:49.297Z,95634.06
2023-01-19T04:28:17.673Z,95636.75
2023-01-19T04:30:45.810Z,95630.53
2023-01-19T04:33:13.971Z,95626.16
2023-01-19T04:35:43.612Z,95625.31
2023-01-19T04:38:11.712Z,95618.25
2023-01-19T04:40:39.871Z,95618.25
2023-01-19T04:43:08.030Z,95630.69
2023-01-19T04:45:36.716Z,95627.16
2023-01-19T04:48:05.831Z,95628.97
2023-01-19T04:50:34.009Z,95626.28
2023-01-19T04:53:03.563Z,95624.63
2023-01-19T04:55:31.814Z,95627.28
2023-01-19T04:57:59.963Z,95627.28
2023-01-19T05:00:28.011Z,95633.47
2023-01-19T05:02:56.214Z,95637.16
2023-01-19T05:05:24.473Z,95634.47
2023-01-19T05:07:52.625Z,95636.31
2023-01-19T05:10:22.159Z,95639.00
2023-01-19T05:12:50.296Z,95645.22
2023-01-19T05:15:18.536Z,95652.25
2023-01-19T05:17:46.757Z,95653.25
2023-01-19T05:20:16.338Z,95654.09
2023-01-19T05:22:44.674Z,95656.78
2023-01-19T05:25:12.834Z,95663.84
2023-01-19T05:27:42.311Z,95666.50
2023-01-19T05:30:11.996Z,95670.91
2023-01-19T05:32:40.097Z,95674.56
2023-01-19T05:35:09.302Z,95670.91
2023-01-19T05:37:37.490Z,95674.41
2023-01-19T05:40:07.002Z,95664.69
2023-01-19T05:42:35.049Z,95672.72
2023-01-19T05:45:04.810Z,95662.88
2023-01-19T05:47:32.941Z,95663.69
2023-01-19T05:50:01.075Z,95668.09
2023-01-19T05:52:29.122Z,95672.59
2023-01-19T05:54:57.237Z,95675.28
2023-01-19T05:57:25.302Z,95673.34
2023-01-19T05:59:53.484Z,95672.47
2023-01-19T06:02:28.703Z,95668.94
2023-01-19T06:04:57.285Z,95670.66
2023-01-19T06:07:27.531Z,95662.59
2023-01-19T06:09:56.999Z,95668.69
2023-01-19T06:12:25.137Z,95667.00
2023-01-19T06:14:53.453Z,95668.69
2023-01-19T06:17:23.018Z,95676.72
2023-01-19T06:19:51.188Z,95672.38
2023-01-19T06:22:19.290Z,95683.81
2023-01-19T06:24:47.500Z,95678.44
2023-01-19T06:27:15.670Z,95688.31
2023-01-19T06:29:43.765Z,95681.13
2023-01-19T06:32:11.857Z,95692.66
2023-01-19T06:34:43.859Z,95703.41
2023-01-19T06:37:12.295Z,95706.09
2023-01-19T06:39:41.197Z,95708.66
2023-01-19T06:42:09.328Z,95718.53
2023-01-19T06:44:37.482Z,95713.00
2023-01-19T06:47:14.647Z,95718.22
2023-01-19T06:49:45.653Z,95718.69
2023-01-19T06:52:15.990Z,95721.38
2023-01-19T06:54:45.256Z,95730.25
2023-01-19T06:57:14.007Z,95722.19
2023-01-19T06:59:42.184Z,95727.56
2023-01-19T07:02:26.511Z,95728.41
2023-01-19T07:04:57.546Z,95729.28
2023-01-19T07:07:25.992Z,95732.81
2023-01-19T07:09:54.362Z,95731.97
2023-01-19T07:12:22.523Z,95726.59
2023-01-19T07:14:50.681Z,95730.00
2023-01-19T07:17:18.806Z,95732.53
2023-01-19T07:19:47.465Z,95732.53
2023-01-19T07:22:16.945Z,95742.53
2023-01-19T07:24:45.102Z,95744.25
2023-01-19T07:27:13.255Z,95738.03
2023-01-19T07:29:41.489Z,95745.22
2023-01-19T07:32:09.637Z,95748.91
2023-01-19T07:34:37.958Z,95765.81
2023-01-19T07:37:06.077Z,95774.88
2023-01-19T07:39:36.734Z,95778.41
2023-01-19T07:42:05.124Z,95782.19
2023-01-19T07:44:33.338Z,95780.38
2023-01-19T07:47:01.492Z,95795.47
2023-01-19T07:49:29.586Z,95800.84
2023-01-19T07:51:58.111Z,95810.59
2023-01-19T07:54:26.298Z,95808.75
2023-01-19T07:56:56.415Z,95811.44
2023-01-19T07:59:24.889Z,95814.97
2023-01-19T08:01:54.352Z,95812.28
2023-01-19T08:04:22.662Z,95814.97
2023-01-19T08:06:50.875Z,95812.13
2023-01-19T08:09:19.180Z,95804.94
2023-01-19T08:11:47.233Z,95805.81
2023-01-19T08:14:16.763Z,95814.56
2023-01-19T08:16:44.854Z,95815.44
2023-01-19T08:19:12.952Z,95825.31
2023-01-19T08:21:41.192Z,95834.19
2023-01-19T08:24:12.687Z,95831.53
2023-01-19T08:26:40.918Z,95836.03
2023-01-19T08:29:09.103Z,95829.81
2023-01-19T08:31:39.652Z,95836.03
2023-01-19T08:34:08.284Z,95840.41
2023-01-19T08:36:36.539Z,95844.78
2023-01-19T08:39:05.276Z,95848.34
2023-01-19T08:41:33.577Z,95848.34
2023-01-19T08:44:01.745Z,95851.84
2023-01-19T08:46:29.818Z,95848.34
2023-01-19T08:48:59.403Z,95848.34
2023-01-19T08:51:27.549Z,95846.47
2023-01-19T08:53:55.646Z,95847.34
2023-01-19T08:56:23.768Z,95854.41
2023-01-19T08:59:07.817Z,95857.09
2023-01-19T09:01:38.185Z,95854.41
2023-01-19T09:04:07.910Z,95861.47
2023-01-19T09:06:36.072Z,95864.16
2023-01-19T09:09:04.278Z,95858.78
2023-01-19T09:11:33.229Z,95860.50
2023-01-19T09:14:01.447Z,95857.66
2023-01-19T09:16:29.797Z,95865.44
2023-01-19T09:18:58.579Z,95861.78
2023-01-19T09:21:28.942Z,95867.00
2023-01-19T09:23:57.835Z,95874.09
2023-01-19T09:26:26.311Z,95875.91
2023-01-19T09:28:54.475Z,95871.53
2023-01-19T09:31:22.687Z,95880.44
2023-01-19T09:33:51.135Z,95881.16
2023-01-19T09:36:19.299Z,95886.38
2023-01-19T09:38:48.787Z,95881.84
2023-01-19T09:41:20.536Z,95882.44
2023-01-19T09:43:51.727Z,95886.69
2023-01-19T09:46:21.732Z,95890.09
2023-01-19T09:48:51.327Z,95886.44
2023-01-19T09:51:21.121Z,95884.47
2023-01-19T09:54:04.711Z,95886.16
2023-01-19T09:56:32.976Z,95897.59
2023-01-19T09:59:01.174Z,95893.09
2023-01-19T10:01:38.479Z,95895.78
2023-01-19T10:04:27.096Z,95898.47
2023-01-19T10:06:58.630Z,95898.31
2023-01-19T10:09:30.511Z,95901.00
2023-01-19T10:11:59.909Z,95898.47
2023-01-19T10:14:30.743Z,95901.16
2023-01-19T10:17:02.183Z,95899.44
2023-01-19T10:19:32.829Z,95901.16
2023-01-19T10:22:03.850Z,95899.44
2023-01-19T10:24:37.095Z,95894.06
2023-01-19T10:27:05.283Z,95891.28
2023-01-19T10:29:36.381Z,95897.47
2023-01-19T10:32:06.356Z,95893.09
2023-01-19T10:34:34.563Z,95896.50
2023-01-19T10:37:05.566Z,95901.00
2023-01-19T10:39:38.614Z,95899.91
2023-01-19T10:42:07.095Z,95900.75
2023-01-19T10:44:36.794Z,95903.44
2023-01-19T10:47:05.379Z,95900.75
2023-01-19T10:49:37.963Z,95912.31
2023-01-19T10:52:07.167Z,95919.53
2023-01-19T10:54:38.465Z,95916.84
2023-01-19T10:57:09.317Z,95911.50
2023-01-19T10:59:38.420Z,95905.25
2023-01-19T11:02:20.390Z,95908.81
2023-01-19T11:04:50.174Z,95912.47
2023-01-19T11:07:21.100Z,95919.53
2023-01-19T11:09:50.964Z,95919.53
2023-01-19T11:12:20.245Z,95916.00
2023-01-19T11:14:48.505Z,95920.66
2023-01-19T11:17:21.507Z,95926.41
2023-01-19T11:19:57.595Z,95925.56
2023-01-19T11:22:27.874Z,95939.97
2023-01-19T11:25:00.562Z,95933.88
2023-01-19T11:27:28.708Z,95947.31
2023-01-19T11:30:02.232Z,95950.84
2023-01-19T11:32:30.371Z,95946.19
2023-01-19T11:34:58.502Z,95954.09
2023-01-19T11:37:31.269Z,95947.75
2023-01-19T11:40:02.670Z,95951.16
2023-01-19T11:42:32.024Z,95954.81
2023-01-19T11:45:03.143Z,95951.16
2023-01-19T11:47:33.638Z,95956.50
2023-01-19T11:50:04.027Z,95959.19
2023-01-19T11:52:35.197Z,95965.41
2023-01-19T11:55:06.912Z,95958.22
2023-01-19T11:57:35.174Z,95969.69
2023-01-19T12:00:24.013Z,95974.91
2023-01-19T12:02:52.421Z,95977.44
2023-01-19T12:05:20.777Z,95977.34
2023-01-19T12:07:49.141Z,95974.53
2023-01-19T12:10:24.736Z,95970.84
2023-01-19T12:12:52.994Z,95974.22
2023-01-19T12:15:31.562Z,95978.63
2023-01-19T12:18:01.271Z,95985.69
2023-01-19T12:20:31.959Z,95987.41
2023-01-19T12:23:07.795Z,95985.44
2023-01-19T12:25:46.012Z,95989.94
2023-01-19T12:28:15.203Z,95999.00
2023-01-19T12:30:49.828Z,96000.97
2023-01-19T12:33:25.315Z,95996.56
2023-01-19T12:35:57.290Z,96004.78
2023-01-19T12:38:55.415Z,95997.69
2023-01-19T12:41:27.429Z,96001.38
2023-01-19T12:44:21.259Z,95994.16
2023-01-19T12:46:50.309Z,95990.75
2023-01-19T12:49:32.801Z,95991.59
2023-01-19T12:52:35.141Z,95984.53
2023-01-19T12:55:07.518Z,95985.50
2023-01-19T12:57:38.257Z,95985.50
2023-01-19T13:00:08.308Z,95981.13
2023-01-19T13:02:46.564Z,95984.69
2023-01-19T13:05:16.911Z,95987.38
2023-01-19T13:08:23.005Z,95985.50
2023-01-19T13:10:55.703Z,95994.56
2023-01-19T13:13:25.582Z,95991.00
2023-01-19T13:15:55.872Z,95992.84
2023-01-19T13:18:24.733Z,95991.00
2023-01-19T13:20:54.354Z,95991.00
2023-01-19T13:23:24.931Z,95997.38
2023-01-19T13:26:04.112Z,95995.53
2023-01-19T13:28:38.829Z,95995.53
2023-01-19T13:31:07.233Z,95996.38
2023-01-19T13:33:41.095Z,96003.56
2023-01-19T13:36:18.203Z,96011.63
2023-01-19T13:38:46.399Z,96009.94
2023-01-19T13:41:16.227Z,96011.78
2023-01-19T13:43:45.737Z,96019.81
2023-01-19T13:46:13.945Z,96027.00
2023-01-19T13:48:42.079Z,96028.88
2023-01-19T13:51:18.440Z,96034.97
2023-01-19T13:53:54.934Z,96038.63
2023-01-19T13:56:23.879Z,96030.69
2023-01-19T13:59:10.376Z,96029.84
2023-01-19T14:01:40.040Z,96030.69
2023-01-19T14:04:16.957Z,96036.22
2023-01-19T14:06:48.240Z,96043.25
2023-01-19T14:09:18.724Z,96040.56
2023-01-19T14:11:47.688Z,96045.09
2023-01-19T14:14:29.861Z,96053.13
2023-01-19T14:16:57.947Z,96046.94
2023-01-19T14:19:26.143Z,96057.69
2023-01-19T14:22:01.859Z,96065.72
2023-01-19T14:24:33.055Z,96066.69
2023-01-19T14:27:14.331Z,96071.47
2023-01-19T14:29:45.624Z,96076.38
2023-01-19T14:32:15.758Z,96069.31
2023-01-19T14:34:44.904Z,96079.78
2023-01-19T14:37:24.519Z,96082.34
2023-01-19T14:39:53.601Z,96092.94
2023-01-19T14:42:27.199Z,96088.44
2023-01-19T14:44:57.615Z,96087.44
2023-01-19T14:47:34.060Z,96091.00
2023-01-19T14:50:07.543Z,96104.41
2023-01-19T14:52:37.762Z,96099.03
2023-01-19T14:55:08.338Z,96105.28
2023-01-19T14:57:37.249Z,96101.72
2023-01-19T15:00:17.443Z,96093.69
2023-01-19T15:02:45.964Z,96097.22
2023-01-19T15:05:14.360Z,96096.34
2023-01-19T15:07:43.710Z,96110.63
2023-01-19T15:10:14.511Z,96102.59
2023-01-19T15:12:42.766Z,96097.22
2023-01-19T15:15:16.841Z,96098.03
2023-01-19T15:17:44.969Z,96106.97
2023-01-19T15:20:16.524Z,96098.03
2023-01-19T15:22:45.060Z,96111.47
2023-01-19T15:25:16.817Z,96116.84
2023-01-19T15:27:45.224Z,96115.00
2023-01-19T15:30:17.368Z,96116.72
2023-01-19T15:32:45.477Z,96121.25
2023-01-19T15:35:15.615Z,96117.69
2023-01-19T15:37:43.686Z,96121.25
2023-01-19T15:40:12.634Z,96133.56
2023-01-19T15:42:41.042Z,96122.81
2023-01-19T15:45:37.756Z,96130.75
2023-01-19T15:48:07.153Z,96137.78
2023-01-19T15:50:35.672Z,96138.78
2023-01-19T15:53:19.715Z,96147.69
2023-01-19T15:55:50.526Z,96142.44
2023-01-19T15:58:20.605Z,96150.50
2023-01-19T16:00:55.736Z,96152.34
2023-01-19T16:03:24.167Z,96155.84
2023-01-19T16:05:52.253Z,96154.19
2023-01-19T16:08:22.111Z,96167.59
2023-01-19T16:10:50.321Z,96177.34
2023-01-19T16:13:18.394Z,96178.19
2023-01-19T16:15:46.587Z,96176.38
2023-01-19T16:18:16.046Z,96173.69
2023-01-19T16:20:44.188Z,96181.59
2023-01-19T16:23:15.862Z,96172.69
2023-01-19T16:25:44.341Z,96181.59
2023-01-19T16:28:12.505Z,96179.78
2023-01-19T16:30:40.807Z,96186.00
2023-01-19T16:33:11.673Z,96180.63
2023-01-19T16:35:41.303Z,96186.00
2023-01-19T16:38:09.808Z,96193.06
2023-01-19T16:40:38.185Z,96201.25
2023-01-19T16:43:06.314Z,96199.44
2023-01-19T16:45:34.452Z,96202.34
2023-01-19T16:48:02.725Z,96206.88
2023-01-19T16:50:30.811Z,96223.81
2023-01-19T16:53:00.385Z,96231.03
2023-01-19T16:55:28.448Z,96243.47
2023-01-19T16:57:56.909Z,96231.75
2023-01-19T17:00:25.441Z,96229.06
2023-01-19T17:02:53.805Z,96213.81
2023-01-19T17:05:22.409Z,96214.69
2023-01-19T17:07:50.566Z,96224.41
2023-01-19T17:10:20.264Z,96234.19
2023-01-19T17:12:48.400Z,96234.91
2023-01-19T17:15:16.802Z,96235.78
2023-01-19T17:17:45.034Z,96235.66
2023-01-19T17:20:14.056Z,96238.19
2023-01-19T17:22:42.422Z,96244.44
2023-01-19T17:25:10.650Z,96246.13
2023-01-19T17:27:40.228Z,96250.53
2023-01-19T17:30:09.563Z,96244.16
2023-01-19T17:32:37.947Z,96251.25
2023-01-19T17:35:06.681Z,96251.25
2023-01-19T17:37:34.836Z,96243.19
2023-01-19T17:40:02.991Z,96244.06
2023-01-19T17:42:31.136Z,96233.19
2023-01-19T17:45:00.657Z,96236.59
2023-01-19T17:47:28.748Z,96224.78
2023-01-19T17:49:56.909Z,96224.66
2023-01-19T17:52:25.029Z,96209.50
2023-01-19T17:54:53.151Z,96200.47
2023-01-19T17:57:21.375Z,96194.25
2023-01-19T17:59:49.531Z,96190.69
2023-01-19T18:02:19.178Z,96188.88
2023-01-19T18:04:47.321Z,96192.41
2023-01-19T18:07:15.364Z,96195.09
2023-01-19T18:09:43.512Z,96197.78
2023-01-19T18:12:11.591Z,96209.41
2023-01-19T18:14:40.379Z,96218.28
2023-01-19T18:17:08.621Z,96229.03
2023-01-19T18:19:38.101Z,96229.75
2023-01-19T18:22:06.287Z,96233.28
2023-01-19T18:24:34.465Z,96234.16
2023-01-19T18:27:02.758Z,96242.22
2023-01-19T18:29:31.027Z,96251.13
2023-01-19T18:31:59.224Z,96249.28
2023-01-19T18:34:27.356Z,96244.75
2023-01-19T18:36:56.898Z,96254.53
2023-01-19T18:39:25.003Z,96253.41
2023-01-19T18:41:53.200Z,96246.22
2023-01-19T18:44:22.232Z,96239.00
2023-01-19T18:46:50.399Z,96236.31
2023-01-19T18:49:18.498Z,96242.56
2023-01-19T18:51:46.642Z,96242.56
2023-01-19T18:54:17.490Z,96242.56
2023-01-19T18:56:45.739Z,96246.06
2023-01-19T18:59:13.815Z,96238.88
2023-01-19T19:01:42.017Z,96243.38
2023-01-19T19:04:10.147Z,96246.06
2023-01-19T19:06:38.280Z,96254.13
2023-01-19T19:09:06.610Z,96253.31
2023-01-19T19:11:36.540Z,96261.34
2023-01-19T19:14:04.807Z,96276.47
2023-01-19T19:16:36.197Z,96271.25
2023-01-19T19:19:05.103Z,96271.25
2023-01-19T19:21:33.196Z,96273.78
2023-01-19T19:24:01.349Z,96261.34
2023-01-19T19:26:29.416Z,96259.50
2023-01-19T19:28:58.942Z,96263.19
2023-01-19T19:31:27.716Z,96279.28
2023-01-19T19:33:56.352Z,96277.47
2023-01-19T19:36:24.492Z,96286.50
2023-01-19T19:38:52.546Z,96287.50
2023-01-19T19:41:21.930Z,96292.00
2023-01-19T19:43:50.027Z,96292.00
2023-01-19T19:46:21.030Z,96289.44
2023-01-19T19:48:49.504Z,96287.59
2023-01-19T19:51:19.437Z,96287.72
2023-01-19T19:53:50.935Z,96298.47
2023-01-19T19:56:21.206Z,96302.97
2023-01-19T19:58:49.560Z,96303.72
2023-01-19T20:01:20.388Z,96310.94
2023-01-19T20:03:48.726Z,96311.75
2023-01-19T20:06:17.977Z,96317.28
2023-01-19T20:08:46.120Z,96315.44
2023-01-19T20:11:15.058Z,96322.63
2023-01-19T20:13:43.728Z,96327.16
2023-01-19T20:16:13.944Z,96328.88
2023-01-19T20:18:44.018Z,96328.88
2023-01-19T20:21:12.959Z,96325.19
2023-01-19T20:23:41.234Z,96325.09
2023-01-19T20:26:09.731Z,96324.22
2023-01-19T20:28:38.090Z,96323.22
2023-01-19T20:31:10.691Z,96313.47
2023-01-19T20:33:38.881Z,96309.81
2023-01-19T20:36:08.870Z,96302.75
2023-01-19T20:38:37.082Z,96306.41
2023-01-19T20:41:05.233Z,96304.56
2023-01-19T20:43:33.433Z,96311.75
2023-01-19T20:46:01.631Z,96305.56
2023-01-19T20:48:30.259Z,96317.13
2023-01-19T20:51:01.787Z,96319.00
2023-01-19T20:53:31.327Z,96319.97
2023-01-19T20:55:59.561Z,96317.28
2023-01-19T20:58:27.639Z,96312.75
2023-01-19T21:00:55.822Z,96311.75
2023-01-19T21:03:23.918Z,96307.38
2023-01-19T21:05:52.054Z,96309.06
2023-01-19T21:08:20.158Z,96312.75
2023-01-19T21:10:49.682Z,96313.72
2023-01-19T21:13:17.732Z,96308.34
2023-01-19T21:15:45.930Z,96305.66
2023-01-19T21:18:14.007Z,96308.34
2023-01-19T21:20:42.242Z,96301.28
2023-01-19T21:23:10.400Z,96303.97
2023-01-19T21:25:38.680Z,96301.28
2023-01-19T21:28:08.542Z,96296.06
2023-01-19T21:30:37.534Z,96291.66
2023-01-19T21:33:07.187Z,96287.13
2023-01-19T21:35:35.260Z,96288.09
2023-01-19T21:38:03.367Z,96287.38
2023-01-19T21:40:31.470Z,96298.13
2023-01-19T21:42:59.668Z,96294.66
2023-01-19T21:45:29.231Z,96299.31
2023-01-19T21:47:57.455Z,96306.41
2023-01-19T21:50:25.516Z,96307.25
2023-01-19T21:52:53.681Z,96309.22
2023-01-19T21:55:21.851Z,96298.47
2023-01-19T21:57:49.997Z,96301.16
2023-01-19T22:00:19.141Z,96306.78
2023-01-19T22:03:02.790Z,96304.09
2023-01-19T22:05:31.800Z,96301.41
2023-01-19T22:07:59.860Z,96302.41
2023-01-19T22:10:28.003Z,96297.13
2023-01-19T22:12:56.022Z,96304.34
2023-01-19T22:15:24.182Z,96306.19
2023-01-19T22:17:53.659Z,96301.78
2023-01-19T22:20:21.831Z,96307.28
2023-01-19T22:22:49.914Z,96313.38
2023-01-19T22:25:22.032Z,96310.81
2023-01-19T22:27:50.195Z,96304.59
2023-01-19T22:30:19.401Z,96305.59
2023-01-19T22:32:47.585Z,96305.59
2023-01-19T22:35:17.325Z,96306.69
2023-01-19T22:37:45.511Z,96309.38
2023-01-19T22:40:14.175Z,96309.38
2023-01-19T22:42:45.592Z,96297.75
2023-01-19T22:45:13.986Z,96293.38
2023-01-19T22:47:42.168Z,96302.41
2023-01-19T22:50:11.254Z,96295.22
2023-01-19T22:52:40.752Z,96290.81
2023-01-19T22:55:09.546Z,96298.84
2023-01-19T22:57:38.380Z,96289.13
2023-01-19T23:00:08.696Z,96293.63
2023-01-19T23:02:36.935Z,96292.75
2023-01-19T23:05:05.527Z,96293.75
2023-01-19T23:07:33.675Z,96291.06
2023-01-19T23:10:03.146Z,96283.16
2023-01-19T23:12:31.360Z,96284.13
2023-01-19T23:14:59.698Z,96282.28
2023-01-19T23:17:27.872Z,96288.63
2023-01-19T23:19:56.128Z,96288.75
2023-01-19T23:22:24.268Z,96287.88
2023-01-19T23:24:52.451Z,96280.97
2023-01-19T23:27:21.967Z,96288.03
2023-01-19T23:29:50.044Z,96285.34
2023-01-19T23:32:18.186Z,96277.41
2023-01-19T23:34:46.267Z,96269.38
2023-01-19T23:37:14.429Z,96261.31
2023-01-19T23:39:42.699Z,96257.78
2023-01-19T23:42:10.948Z,96268.63
2023-01-19T23:44:40.382Z,96274.00
2023-01-19T23:47:08.596Z,96270.47
2023-01-19T23:49:36.665Z,96257.03
2023-01-19T23:52:05.802Z,96257.19
2023-01-19T23:54:34.012Z,96263.41
2023-01-19T23:57:02.131Z,96267.91
2023-01-19T23:59:30.276Z,96268.88
